Time;durP1;ratioP1;P1;durP2;ratioP2;P2;SDS_P1;SDS_P2;PMS_P1;PMS_P2;Temp;Humidity;BMP_temperature;BMP_pressure;BME280_temperature;BME280_humidity;BME280_pressure;Samples;Min_cycle;Max_cycle;Signal;HPM_P1;HPM_P2
2022/05/13 00:01:10;;;;;;;12.90;2.03;;;;;;;11.74;96.22;101499.03;4989046;28;20426;-77
2022/05/13 00:03:38;;;;;;;7.10;1.83;;;;;;;11.72;97.15;101501.00;4997052;28;20049;-78
2022/05/13 00:06:04;;;;;;;10.93;2.10;;;;;;;11.68;97.13;101500.38;4994216;28;20026;-78
2022/05/13 00:08:31;;;;;;;10.38;2.35;;;;;;;11.66;97.56;101501.44;4990150;28;20034;-78
2022/05/13 00:10:57;;;;;;;16.10;2.10;;;;;;;11.66;97.73;101501.44;4983984;28;20026;-77
2022/05/13 00:13:23;;;;;;;8.48;1.67;;;;;;;11.72;97.97;101493.69;4978751;28;20560;-76
2022/05/13 00:15:50;;;;;;;12.10;2.47;;;;;;;11.78;97.26;101492.34;4993924;28;20058;-77
2022/05/13 00:18:16;;;;;;;12.75;2.30;;;;;;;11.70;97.74;101492.03;5019615;28;20109;-78
2022/05/13 00:20:42;;;;;;;9.32;1.90;;;;;;;11.62;98.42;101486.22;4994668;28;20042;-77
2022/05/13 00:23:08;;;;;;;14.02;2.35;;;;;;;11.53;98.97;101485.91;4989673;28;20080;-79
2022/05/13 00:25:36;;;;;;;13.50;2.33;;;;;;;11.47;99.83;101489.09;4989101;28;20126;-78
2022/05/13 00:28:03;;;;;;;20.90;2.63;;;;;;;11.35;100.00;101479.03;4982996;28;20035;-77
2022/05/13 00:30:31;;;;;;;9.60;3.50;;;;;;;11.33;100.00;101497.44;5003356;28;20046;-77
2022/05/13 00:32:58;;;;;;;5.70;1.85;;;;;;;11.18;100.00;101482.97;5005387;28;20504;-77
2022/05/13 00:35:24;;;;;;;20.67;2.35;;;;;;;11.14;100.00;101485.06;4988389;28;20035;-78
2022/05/13 00:37:49;;;;;;;11.32;2.28;;;;;;;11.08;100.00;101488.22;4994967;28;20042;-78
2022/05/13 00:40:18;;;;;;;12.63;2.60;;;;;;;11.10;100.00;101491.75;4994352;28;20202;-78
2022/05/13 00:42:43;;;;;;;15.07;2.70;;;;;;;11.10;100.00;101479.91;4994500;28;20027;-77
2022/05/13 00:45:13;;;;;;;12.27;2.50;;;;;;;11.01;100.00;101485.06;5008601;28;20375;-78
2022/05/13 00:47:39;;;;;;;16.45;2.88;;;;;;;11.21;100.00;101483.66;4986179;28;20035;-77
2022/05/13 00:50:06;;;;;;;8.65;2.70;;;;;;;11.01;100.00;101476.84;4973480;28;20093;-78
2022/05/13 00:52:32;;;;;;;18.05;3.13;;;;;;;11.08;100.00;101480.00;4976392;28;20047;-79
2022/05/13 00:55:05;;;;;;;14.20;3.10;;;;;;;11.02;100.00;101477.72;4977164;28;20538;-78
2022/05/13 00:57:35;;;;;;;19.65;3.47;;;;;;;10.99;100.00;101483.44;4992419;28;20089;-78
2022/05/13 01:00:02;;;;;;;19.65;3.35;;;;;;;10.93;100.00;101479.25;4993409;28;20735;-76
2022/05/13 01:02:30;;;;;;;9.13;4.10;;;;;;;10.94;100.00;101483.75;4997541;28;20034;-78
2022/05/13 01:04:55;;;;;;;17.63;3.60;;;;;;;10.89;100.00;101476.81;4974518;28;20035;-78
2022/05/13 01:07:21;;;;;;;17.48;3.50;;;;;;;11.00;100.00;101476.94;4962552;28;20508;-78
2022/05/13 01:09:51;;;;;;;9.85;3.33;;;;;;;10.94;100.00;101486.50;4993230;28;20037;-77
2022/05/13 01:12:22;;;;;;;19.08;3.50;;;;;;;10.90;100.00;101482.19;4994904;28;20522;-77
2022/05/13 01:14:53;;;;;;;17.15;4.05;;;;;;;10.88;100.00;101477.81;4965664;28;20035;-78
2022/05/13 01:20:20;;;;;;;23.83;3.63;;;;;;;10.84;100.00;101482.66;5009546;28;20092;-78
2022/05/13 01:22:51;;;;;;;25.02;4.13;;;;;;;10.98;100.00;101479.78;4986988;28;20048;-78
2022/05/13 01:25:25;;;;;;;15.23;3.00;;;;;;;11.00;100.00;101490.63;5012132;28;20050;-78
2022/05/13 01:27:52;;;;;;;22.02;4.72;;;;;;;10.91;100.00;101488.56;4979563;28;20070;-76
2022/05/13 01:30:22;;;;;;;24.75;3.25;;;;;;;10.90;100.00;101484.94;4990867;28;20062;-78
2022/05/13 01:32:47;;;;;;;10.13;2.85;;;;;;;10.90;100.00;101473.09;4997577;28;20084;-78
2022/05/13 01:35:13;;;;;;;15.23;3.47;;;;;;;10.91;100.00;101467.53;4994192;28;20137;-77
2022/05/13 01:37:39;;;;;;;22.55;3.80;;;;;;;10.97;100.00;101475.31;4996498;28;20038;-77
2022/05/13 01:40:06;;;;;;;24.05;4.10;;;;;;;10.93;100.00;101481.97;4994334;28;20037;-77
2022/05/13 01:42:32;;;;;;;16.90;3.53;;;;;;;10.83;100.00;101480.88;4965400;28;20039;-77
2022/05/13 01:44:58;;;;;;;20.15;3.80;;;;;;;10.80;100.00;101481.97;4992350;28;20054;-77
2022/05/13 01:47:25;;;;;;;12.13;2.53;;;;;;;10.69;100.00;101483.69;5011111;28;20367;-77
2022/05/13 01:49:53;;;;;;;13.70;2.45;;;;;;;10.72;100.00;101484.34;4996281;28;20034;-78
2022/05/13 01:52:19;;;;;;;15.20;2.50;;;;;;;10.76;100.00;101485.91;5011579;28;20038;-77
2022/05/13 01:54:45;;;;;;;15.88;2.58;;;;;;;10.69;100.00;101487.34;4995723;28;20109;-78
2022/05/13 01:57:11;;;;;;;12.43;2.30;;;;;;;10.52;100.00;101480.28;4993583;28;20061;-77
2022/05/13 01:59:36;;;;;;;16.25;2.60;;;;;;;10.61;100.00;101490.59;4945859;28;20371;-77
2022/05/13 02:02:02;;;;;;;12.93;2.47;;;;;;;10.36;100.00;101485.91;4996826;28;20401;-78
2022/05/13 02:04:28;;;;;;;18.50;3.88;;;;;;;10.44;100.00;101488.13;4977767;28;20046;-77
2022/05/13 02:06:53;;;;;;;17.25;3.85;;;;;;;10.48;100.00;101495.16;4996103;28;20506;-78
2022/05/13 02:09:19;;;;;;;14.23;2.70;;;;;;;10.37;100.00;101493.16;4979164;28;20069;-78
2022/05/13 02:11:45;;;;;;;12.10;2.38;;;;;;;10.24;100.00;101490.34;4995944;28;20045;-77
2022/05/13 02:14:16;;;;;;;15.80;2.95;;;;;;;10.25;100.00;101494.84;4984752;28;20122;-77
2022/05/13 02:16:41;;;;;;;14.98;2.78;;;;;;;10.26;100.00;101493.88;4992049;28;20061;-78
2022/05/13 02:19:07;;;;;;;11.13;3.00;;;;;;;10.29;100.00;101490.91;4990263;28;20076;-77
2022/05/13 02:21:33;;;;;;;30.45;4.43;;;;;;;10.28;100.00;101500.09;4977289;28;20058;-79
2022/05/13 02:23:59;;;;;;;16.00;2.88;;;;;;;10.30;100.00;101495.41;4997104;28;20516;-77
2022/05/13 02:26:25;;;;;;;21.80;2.65;;;;;;;10.38;100.00;101503.13;4988132;28;20074;-77
2022/05/13 02:28:50;;;;;;;14.40;3.42;;;;;;;10.65;100.00;101504.94;4970089;28;20094;-77
2022/05/13 02:31:16;;;;;;;15.35;2.70;;;;;;;10.36;100.00;101499.59;4992128;28;20049;-77
2022/05/13 02:33:42;;;;;;;15.20;2.50;;;;;;;10.36;100.00;101504.22;4982129;28;20070;-77
2022/05/13 02:36:11;;;;;;;22.98;3.03;;;;;;;10.47;100.00;101496.16;4971482;28;20482;-77
2022/05/13 02:38:37;;;;;;;13.65;2.75;;;;;;;10.32;100.00;101489.84;4993499;28;20054;-78
2022/05/13 02:41:12;;;;;;;14.55;3.22;;;;;;;10.26;100.00;101491.13;4980626;28;20498;-76
2022/05/13 02:43:41;;;;;;;18.13;3.08;;;;;;;10.33;100.00;101482.50;4962589;28;20050;-77
2022/05/13 02:46:07;;;;;;;10.63;2.10;;;;;;;10.30;100.00;101478.13;4992808;28;20049;-77
2022/05/13 02:48:33;;;;;;;21.55;3.17;;;;;;;10.40;100.00;101484.75;4993504;28;20038;-78
2022/05/13 02:50:58;;;;;;;17.25;3.22;;;;;;;10.22;100.00;101484.09;4995010;28;20034;-78
2022/05/13 02:53:24;;;;;;;24.02;3.13;;;;;;;10.24;100.00;101478.53;4991756;28;20034;-79
2022/05/13 02:55:50;;;;;;;34.72;3.97;;;;;;;10.26;100.00;101474.72;4975141;28;20030;-77
2022/05/13 02:58:16;;;;;;;21.45;3.13;;;;;;;10.34;100.00;101476.06;4992865;28;20359;-76
2022/05/13 03:00:41;;;;;;;22.02;3.25;;;;;;;10.28;100.00;101477.31;4991463;28;20038;-78
2022/05/13 03:03:07;;;;;;;16.77;2.63;;;;;;;10.23;100.00;101474.00;4995233;28;20062;-79
2022/05/13 03:05:34;;;;;;;16.75;3.92;;;;;;;10.17;100.00;101466.25;4993447;28;20062;-78
2022/05/13 03:08:01;;;;;;;15.48;2.47;;;;;;;10.22;100.00;101469.53;5000662;28;20520;-78
2022/05/13 03:10:32;;;;;;;21.73;3.13;;;;;;;10.24;100.00;101473.91;4978484;28;20389;-77
2022/05/13 03:12:59;;;;;;;20.35;2.92;;;;;;;10.19;100.00;101481.56;4990648;28;20070;-77
2022/05/13 03:15:26;;;;;;;21.15;3.22;;;;;;;10.23;100.00;101479.50;4969117;28;20034;-78
2022/05/13 03:17:52;;;;;;;18.30;3.05;;;;;;;10.05;100.00;101466.09;4959804;28;20035;-77
2022/05/13 03:20:20;;;;;;;31.63;4.88;;;;;;;10.31;100.00;101468.91;4976285;28;20496;-77
2022/05/13 03:22:46;;;;;;;22.40;3.35;;;;;;;10.21;100.00;101462.31;5010440;28;20086;-77
2022/05/13 03:25:13;;;;;;;30.17;5.10;;;;;;;10.30;100.00;101472.63;4961558;28;20074;-78
2022/05/13 03:27:39;;;;;;;28.70;3.90;;;;;;;10.21;100.00;101471.38;4993574;28;20037;-77
2022/05/13 03:30:06;;;;;;;31.02;4.05;;;;;;;10.15;100.00;101458.13;4990126;28;20042;-76
2022/05/13 03:32:31;;;;;;;22.60;3.95;;;;;;;10.26;100.00;101465.59;4993492;28;20038;-78
2022/05/13 03:34:57;;;;;;;18.90;3.83;;;;;;;10.38;100.00;101470.28;4979766;28;20045;-77
2022/05/13 03:37:23;;;;;;;18.40;5.10;;;;;;;10.56;100.00;101472.72;4970279;28;20038;-77
2022/05/13 03:39:48;;;;;;;34.13;4.53;;;;;;;10.44;100.00;101469.84;5008272;28;20054;-78
2022/05/13 03:42:14;;;;;;;31.65;4.80;;;;;;;10.43;100.00;101464.50;4985270;28;20057;-78
2022/05/13 03:44:40;;;;;;;23.90;4.45;;;;;;;10.47;100.00;101475.09;4961201;28;20034;-77
2022/05/13 03:47:06;;;;;;;29.02;4.07;;;;;;;10.31;100.00;101466.16;4984832;28;20046;-76
2022/05/13 03:49:32;;;;;;;22.55;4.18;;;;;;;10.36;100.00;101458.53;4984398;28;20125;-77
2022/05/13 03:51:57;;;;;;;20.75;3.85;;;;;;;10.44;100.00;101474.44;4992770;28;20034;-77
2022/05/13 03:54:23;;;;;;;41.20;4.72;;;;;;;10.31;100.00;101474.38;4995480;28;20137;-78
2022/05/13 03:56:48;;;;;;;25.85;5.32;;;;;;;10.54;100.00;101480.16;4987990;28;20540;-77
2022/05/13 03:59:14;;;;;;;34.70;4.93;;;;;;;10.62;100.00;101480.50;4961123;28;20043;-76
2022/05/13 04:01:39;;;;;;;27.67;4.53;;;;;;;10.73;100.00;101477.03;4991179;28;20038;-76
2022/05/13 04:04:05;;;;;;;23.73;5.38;;;;;;;10.57;100.00;101469.88;4992002;28;20508;-77
2022/05/13 04:09:15;;;;;;;38.92;5.82;;;;;;;10.54;100.00;101480.16;4989598;28;20100;-78
2022/05/13 04:16:04;;;;;;;36.35;5.28;;;;;;;10.73;100.00;101464.22;4970545;28;20042;-77
2022/05/13 04:17:12;;;;;;;35.30;6.03;;;;;;;10.44;100.00;101475.31;4994822;28;20030;-77
2022/05/13 04:19:37;;;;;;;41.42;5.72;;;;;;;10.51;100.00;101472.16;4994183;28;20038;-78
2022/05/13 04:22:03;;;;;;;34.20;6.18;;;;;;;10.40;100.00;101475.66;4996336;28;20089;-78
2022/05/13 04:24:29;;;;;;;39.58;6.70;;;;;;;10.53;100.00;101472.97;4994092;28;20038;-78
2022/05/13 04:26:56;;;;;;;49.15;6.05;;;;;;;10.57;100.00;101478.09;4971835;28;20467;-78
2022/05/13 04:29:21;;;;;;;29.63;5.57;;;;;;;10.40;100.00;101473.78;4994432;28;20042;-79
2022/05/13 04:31:47;;;;;;;42.35;6.20;;;;;;;10.62;100.00;101480.50;4980571;28;20089;-79
2022/05/13 04:34:13;;;;;;;42.78;9.05;;;;;;;10.60;100.00;101475.16;4997381;28;20046;-78
2022/05/13 04:36:38;;;;;;;29.75;5.75;;;;;;;10.64;100.00;101476.69;4998579;28;20043;-77
2022/05/13 04:39:05;;;;;;;33.10;5.93;;;;;;;10.64;100.00;101463.00;4968062;28;20464;-80
2022/05/13 04:44:15;;;;;;;52.97;8.73;;;;;;;10.70;100.00;101474.50;4993039;28;20043;-78
2022/05/13 04:46:41;;;;;;;30.48;6.53;;;;;;;10.73;100.00;101475.16;4998869;28;20038;-78
2022/05/13 04:49:08;;;;;;;42.83;7.18;;;;;;;10.65;100.00;101488.53;4981400;28;20426;-78
2022/05/13 04:51:34;;;;;;;24.77;5.55;;;;;;;10.78;100.00;101497.63;4983946;28;20030;-78
2022/05/13 04:53:59;;;;;;;41.28;6.18;;;;;;;10.69;100.00;101506.50;4994950;28;20038;-78
2022/05/13 04:56:27;;;;;;;27.88;5.72;;;;;;;10.88;100.00;101514.31;4998136;28;20044;-77
2022/05/13 04:58:52;;;;;;;35.13;5.63;;;;;;;10.68;100.00;101503.88;5000023;28;20061;-79
2022/05/13 05:01:20;;;;;;;31.95;6.45;;;;;;;10.65;100.00;101516.78;5007845;28;20050;-80
2022/05/13 05:03:46;;;;;;;36.05;6.63;;;;;;;10.69;100.00;101516.56;4991609;28;20037;-77
2022/05/13 05:06:13;;;;;;;49.90;7.22;;;;;;;10.76;100.00;101526.13;4998115;28;20038;-77
2022/05/13 05:08:39;;;;;;;26.45;5.72;;;;;;;10.74;100.00;101518.03;4995264;28;20096;-78
2022/05/13 05:11:05;;;;;;;26.95;5.80;;;;;;;10.85;100.00;101520.91;4998004;28;20039;-78
2022/05/13 05:13:37;;;;;;;37.30;5.32;;;;;;;10.97;100.00;101529.22;4995292;28;20406;-78
2022/05/13 05:16:05;;;;;;;21.23;5.03;;;;;;;10.99;100.00;101532.75;4977759;28;20037;-77
2022/05/13 05:18:31;;;;;;;35.30;4.80;;;;;;;11.03;100.00;101528.78;4987974;28;20046;-78
2022/05/13 05:20:57;;;;;;;26.23;4.65;;;;;;;11.29;100.00;101526.94;5009922;28;20050;-77
2022/05/13 05:23:27;;;;;;;38.70;5.30;;;;;;;11.42;100.00;101534.31;4996816;28;20030;-77
2022/05/13 05:25:53;;;;;;;24.85;4.80;;;;;;;11.85;100.00;101533.91;4992780;28;20051;-76
2022/05/13 05:28:19;;;;;;;21.73;4.35;;;;;;;11.71;100.00;101532.19;4989430;28;20039;-78
2022/05/13 05:30:45;;;;;;;26.95;3.78;;;;;;;11.83;100.00;101528.53;4995856;28;20035;-78
2022/05/13 05:33:12;;;;;;;27.27;4.63;;;;;;;11.85;100.00;101533.91;4996530;28;20030;-77
2022/05/13 05:35:37;;;;;;;23.20;4.13;;;;;;;11.78;100.00;101545.31;4992211;28;20027;-77
2022/05/13 05:38:03;;;;;;;21.55;4.03;;;;;;;11.81;100.00;101544.25;4985746;28;20394;-78
2022/05/13 05:40:30;;;;;;;18.88;3.80;;;;;;;11.53;100.00;101546.25;4980315;28;20125;-77
2022/05/13 05:42:56;;;;;;;20.70;4.43;;;;;;;11.84;100.00;101555.00;4979738;28;20035;-77
2022/05/13 05:45:22;;;;;;;20.63;3.00;;;;;;;11.70;100.00;101558.72;4990837;28;20038;-77
2022/05/13 05:47:48;;;;;;;17.80;3.67;;;;;;;11.84;100.00;101554.09;4964128;28;20045;-77
2022/05/13 05:50:19;;;;;;;22.42;4.07;;;;;;;11.85;100.00;101569.59;4997493;28;20045;-76
2022/05/13 05:52:45;;;;;;;21.40;3.90;;;;;;;12.07;100.00;101571.69;4997583;28;20497;-78
2022/05/13 05:58:01;;;;;;;20.40;5.03;;;;;;;12.00;100.00;101575.84;4978410;28;20089;-77
2022/05/13 06:00:29;;;;;;;29.85;5.32;;;;;;;12.10;100.00;101577.81;5005135;28;20529;-77
2022/05/13 06:02:55;;;;;;;20.00;3.35;;;;;;;12.21;100.00;101590.72;4953438;28;20038;-77
2022/05/13 06:05:21;;;;;;;19.75;3.63;;;;;;;12.17;100.00;101591.97;4979810;28;20023;-76
2022/05/13 06:07:46;;;;;;;14.30;3.22;;;;;;;12.20;100.00;101604.56;4996133;28;21055;-77
2022/05/13 06:10:13;;;;;;;31.38;2.95;;;;;;;11.97;100.00;101601.66;4998392;28;20109;-76
2022/05/13 06:12:40;;;;;;;24.88;3.10;;;;;;;11.93;100.00;101606.47;4998141;28;20030;-76
2022/05/13 06:15:06;;;;;;;20.90;3.95;;;;;;;12.06;100.00;101606.47;4979830;28;20117;-77
2022/05/13 06:17:32;;;;;;;18.10;2.72;;;;;;;12.21;100.00;101609.94;4995529;28;20162;-77
2022/05/13 06:19:58;;;;;;;28.80;4.05;;;;;;;12.60;100.00;101607.09;4978929;28;20050;-77
2022/05/13 06:22:23;;;;;;;24.15;3.45;;;;;;;12.65;100.00;101610.34;4996504;28;20034;-76
2022/05/13 06:24:48;;;;;;;16.88;3.70;;;;;;;12.58;100.00;101607.19;4995317;28;20034;-76
2022/05/13 06:27:14;;;;;;;12.00;3.20;;;;;;;12.66;100.00;101602.00;4977314;28;20097;-77
2022/05/13 06:29:39;;;;;;;25.38;3.80;;;;;;;12.51;100.00;101603.16;4981819;28;20039;-77
2022/05/13 06:32:05;;;;;;;19.58;3.63;;;;;;;12.68;100.00;101610.13;4988374;28;20072;-77
2022/05/13 06:34:32;;;;;;;20.70;3.45;;;;;;;12.73;100.00;101618.88;5011675;28;20042;-77
2022/05/13 06:37:00;;;;;;;25.17;4.80;;;;;;;13.05;100.00;101615.53;4997394;28;20026;-76
2022/05/13 06:39:26;;;;;;;18.42;3.17;;;;;;;13.19;100.00;101625.47;5011707;28;20509;-76
2022/05/13 06:41:51;;;;;;;14.65;2.97;;;;;;;13.40;100.00;101615.56;4994407;28;20042;-76
2022/05/13 06:44:18;;;;;;;25.92;3.83;;;;;;;14.19;99.83;101620.25;4998091;28;20045;-75
2022/05/13 06:46:44;;;;;;;16.88;3.13;;;;;;;14.14;99.39;101606.00;4978121;28;20042;-77
2022/05/13 06:49:11;;;;;;;22.48;3.60;;;;;;;14.05;100.00;101621.41;4981436;28;20030;-76
2022/05/13 06:51:37;;;;;;;20.27;3.38;;;;;;;14.25;99.18;101628.03;4980256;28;20030;-77
2022/05/13 06:54:06;;;;;;;13.85;4.10;;;;;;;14.25;99.33;101625.28;5012689;28;20049;-77
2022/05/13 06:56:33;;;;;;;13.95;3.47;;;;;;;14.10;100.00;101626.50;4980149;28;20061;-76
2022/05/13 06:59:00;;;;;;;23.33;3.88;;;;;;;14.56;98.92;101632.84;5012129;28;20536;-77
2022/05/13 07:01:26;;;;;;;13.75;3.10;;;;;;;14.92;96.42;101625.28;4981321;28;20034;-76
2022/05/13 07:03:52;;;;;;;24.10;5.03;;;;;;;14.83;96.80;101624.19;4993630;28;20538;-77
2022/05/13 07:06:17;;;;;;;16.92;4.53;;;;;;;14.92;94.95;101609.63;4990968;28;20045;-76
2022/05/13 07:08:43;;;;;;;22.23;4.00;;;;;;;14.50;97.88;101614.97;4997616;28;20045;-77
2022/05/13 07:11:08;;;;;;;21.30;4.30;;;;;;;14.86;96.91;101633.06;4994721;28;20401;-76
2022/05/13 07:13:34;;;;;;;22.38;4.82;;;;;;;14.82;97.96;101628.84;4974735;28;20462;-77
2022/05/13 07:16:00;;;;;;;21.67;3.75;;;;;;;15.10;94.89;101633.84;4995192;28;20038;-77
2022/05/13 07:18:27;;;;;;;19.17;4.03;;;;;;;14.87;96.64;101640.34;4990406;28;20027;-76
2022/05/13 07:20:52;;;;;;;18.80;3.53;;;;;;;14.83;96.26;101633.31;4994487;28;20080;-77
2022/05/13 07:23:18;;;;;;;19.83;4.55;;;;;;;15.34;94.70;101639.13;5010609;28;20065;-77
2022/05/13 07:25:44;;;;;;;21.95;4.70;;;;;;;15.13;94.86;101633.59;5011443;28;20061;-76
2022/05/13 07:28:10;;;;;;;29.98;4.95;;;;;;;15.23;93.72;101632.69;4996206;28;20030;-77
2022/05/13 07:30:36;;;;;;;29.55;5.43;;;;;;;15.36;93.78;101646.25;4994761;28;20037;-77
2022/05/13 07:33:01;;;;;;;16.27;4.40;;;;;;;15.05;94.40;101639.75;4975485;28;20042;-77
2022/05/13 07:35:27;;;;;;;19.02;4.35;;;;;;;15.27;93.90;101633.28;5008427;28;20045;-76
2022/05/13 07:37:52;;;;;;;16.77;4.05;;;;;;;15.24;94.73;101633.53;4963411;28;20039;-76
2022/05/13 07:43:03;;;;;;;19.30;4.43;;;;;;;15.71;90.97;101645.06;4995601;28;20437;-77
2022/05/13 07:45:29;;;;;;;18.60;4.60;;;;;;;15.98;88.73;101639.00;4977358;28;20035;-76
2022/05/13 07:47:55;;;;;;;27.20;4.57;;;;;;;16.25;88.56;101643.06;4978134;28;20030;-77
2022/05/13 07:50:21;;;;;;;15.32;5.10;;;;;;;16.02;87.97;101644.25;4996112;28;20038;-77
2022/05/13 07:52:46;;;;;;;27.35;5.63;;;;;;;16.48;86.38;101652.00;5011164;28;20038;-77
2022/05/13 07:55:15;;;;;;;15.70;4.72;;;;;;;16.34;86.14;101646.88;4978691;28;20031;-77
2022/05/13 07:57:42;;;;;;;23.02;5.20;;;;;;;16.21;87.18;101649.88;4995111;28;20115;-77
2022/05/13 08:00:24;;;;;;;18.35;5.03;;;;;;;16.13;86.88;101652.44;4996640;28;20070;-77
2022/05/13 08:02:51;;;;;;;20.15;4.97;;;;;;;16.86;84.21;101653.16;4994867;28;20034;-77
2022/05/13 08:05:17;;;;;;;20.80;5.22;;;;;;;16.99;82.61;101650.13;4994450;28;20038;-77
2022/05/13 08:07:43;;;;;;;21.58;5.80;;;;;;;16.75;81.95;101669.84;5011478;28;20038;-76
2022/05/13 08:10:08;;;;;;;18.40;6.05;;;;;;;16.85;80.71;101662.47;4994595;28;20042;-76
2022/05/13 08:12:34;;;;;;;22.77;5.65;;;;;;;16.85;81.91;101664.34;4997122;28;20047;-76
2022/05/13 08:14:59;;;;;;;18.85;5.93;;;;;;;16.59;82.09;101659.31;4995218;28;20538;-77
2022/05/13 08:17:25;;;;;;;21.65;6.07;;;;;;;16.68;81.67;101668.66;4978829;28;20124;-75
2022/05/13 08:19:50;;;;;;;16.98;6.22;;;;;;;17.02;81.41;101655.38;4978300;28;20046;-76
2022/05/13 08:22:16;;;;;;;23.13;6.70;;;;;;;17.48;79.63;101663.97;4993401;28;20097;-76
2022/05/13 08:24:42;;;;;;;22.75;6.57;;;;;;;17.66;76.32;101655.78;4977482;28;20054;-76
2022/05/13 08:27:07;;;;;;;18.10;5.32;;;;;;;17.73;76.16;101673.56;4995356;28;20558;-76
2022/05/13 08:29:33;;;;;;;28.83;7.03;;;;;;;17.08;77.39;101671.38;4978808;28;20033;-76
2022/05/13 08:31:59;;;;;;;22.20;6.40;;;;;;;17.07;78.10;101677.06;4994896;28;20463;-76
2022/05/13 08:34:24;;;;;;;20.52;6.47;;;;;;;16.98;79.22;101672.41;4984750;28;20057;-77
2022/05/13 08:36:50;;;;;;;13.93;6.05;;;;;;;16.82;80.40;101672.91;4994475;28;20035;-77
2022/05/13 08:39:16;;;;;;;17.90;6.38;;;;;;;16.58;80.59;101670.50;4979015;28;20053;-76
2022/05/13 08:42:07;;;;;;;21.98;7.28;;;;;;;16.78;79.85;101671.44;4996161;28;20099;-76
2022/05/13 08:44:33;;;;;;;21.23;7.28;;;;;;;16.65;79.96;101664.28;4978496;28;20124;-77
2022/05/13 08:47:08;;;;;;;20.60;8.80;;;;;;;16.31;80.60;101664.59;4976470;28;20121;-76
2022/05/13 08:49:54;;;;;;;21.95;9.55;;;;;;;16.28;82.19;101672.28;4991317;28;20062;-77
2022/05/13 08:55:19;;;;;;;17.00;6.38;;;;;;;16.76;77.30;101670.69;4975338;28;20034;-76
2022/05/13 08:57:48;;;;;;;16.45;6.80;;;;;;;16.72;78.70;101673.78;4984146;28;20045;-76
2022/05/13 09:00:23;;;;;;;27.42;8.88;;;;;;;16.78;77.97;101676.97;4994707;28;20054;-77
2022/05/13 09:03:03;;;;;;;22.92;9.05;;;;;;;17.48;76.91;101663.97;5010700;28;20038;-77
2022/05/13 09:05:45;;;;;;;28.25;8.80;;;;;;;18.38;70.23;101672.78;5010830;28;20062;-76
2022/05/13 09:08:11;;;;;;;22.13;9.20;;;;;;;17.54;73.78;101666.13;4995781;28;20113;-77
2022/05/13 09:11:07;;;;;;;19.85;9.30;;;;;;;17.58;73.11;101667.59;4994580;28;20070;-76
2022/05/13 09:13:59;;;;;;;19.63;7.00;;;;;;;18.52;68.22;101669.50;4995253;28;20533;-76
2022/05/13 09:16:59;;;;;;;19.80;6.93;;;;;;;19.00;63.50;101669.41;5010095;28;20065;-77
2022/05/13 09:19:56;;;;;;;19.75;6.20;;;;;;;18.84;63.23;101662.66;4994017;28;20050;-77
2022/05/13 09:22:21;;;;;;;14.02;5.85;;;;;;;18.55;64.42;101663.66;4984424;28;20046;-76
2022/05/13 09:24:47;;;;;;;21.58;6.63;;;;;;;17.66;67.34;101677.06;4994486;28;20039;-76
2022/05/13 09:27:13;;;;;;;21.73;7.32;;;;;;;17.63;68.54;101679.09;4993686;28;20441;-76
2022/05/13 09:29:43;;;;;;;23.23;7.78;;;;;;;17.53;69.50;101671.81;5010825;28;20038;-76
2022/05/13 09:32:21;;;;;;;17.55;6.85;;;;;;;17.51;68.76;101683.06;4997854;28;20123;-76
2022/05/13 09:35:00;;;;;;;17.50;6.25;;;;;;;17.97;68.81;101675.88;4997931;28;20046;-76
2022/05/13 09:37:34;;;;;;;15.27;7.20;;;;;;;17.69;68.19;101676.75;4998412;28;20027;-76
2022/05/13 09:40:34;;;;;;;16.58;9.40;;;;;;;17.63;69.81;101675.47;4997605;28;20393;-76
2022/05/13 09:42:59;;;;;;;24.90;10.45;;;;;;;18.67;66.06;101674.56;4985636;28;20494;-76
2022/05/13 09:45:30;;;;;;;26.13;10.57;;;;;;;18.76;65.07;101672.75;4997761;28;20030;-76
2022/05/13 09:48:05;;;;;;;18.52;8.13;;;;;;;18.81;62.93;101671.28;4997367;28;20026;-76
2022/05/13 09:50:48;;;;;;;23.17;8.30;;;;;;;18.92;62.44;101676.63;4996967;28;20089;-76
2022/05/13 09:53:23;;;;;;;19.23;9.20;;;;;;;19.34;62.25;101675.16;4997760;28;20034;-76
2022/05/13 09:55:51;;;;;;;35.33;10.43;;;;;;;19.36;61.49;101683.31;4996767;28;20456;-76
2022/05/13 09:58:18;;;;;;;23.75;11.63;;;;;;;19.14;62.30;101682.75;4996675;28;20073;-76
2022/05/13 10:00:48;;;;;;;28.55;11.82;;;;;;;18.35;65.67;101673.97;4993297;28;20554;-77
2022/05/13 10:03:26;;;;;;;21.88;9.48;;;;;;;18.25;64.26;101691.66;4989640;28;20038;-76
2022/05/13 10:06:15;;;;;;;23.17;7.30;;;;;;;18.85;62.18;101685.72;5013756;28;20045;-77
2022/05/13 10:13:57;;;;;;;16.05;7.28;;;;;;;18.32;61.84;101687.28;4997167;28;20026;-76
2022/05/13 10:14:35;;;;;;;20.52;8.60;;;;;;;18.05;64.01;101685.31;4999923;28;20098;-76
2022/05/13 10:17:07;;;;;;;20.73;8.43;;;;;;;17.95;64.02;101699.19;4997623;28;20097;-76
2022/05/13 10:19:45;;;;;;;18.10;9.52;;;;;;;17.64;65.00;101699.34;5012964;28;20033;-77
2022/05/13 10:22:10;;;;;;;23.40;9.40;;;;;;;17.69;66.77;101688.69;4997238;28;20390;-76
2022/05/13 10:25:02;;;;;;;26.38;10.25;;;;;;;17.61;67.24;101696.88;5012724;28;20027;-76
2022/05/13 10:27:50;;;;;;;31.10;12.60;;;;;;;17.85;67.88;101701.94;4995439;28;20066;-76
2022/05/13 10:30:45;;;;;;;36.08;12.35;;;;;;;18.10;66.14;101700.50;4997538;28;20390;-76
2022/05/13 10:33:24;;;;;;;38.45;12.10;;;;;;;18.31;64.94;101688.28;4996159;28;20380;-76
2022/05/13 10:36:10;;;;;;;20.98;11.52;;;;;;;18.44;64.45;101691.59;4997365;28;20152;-77
2022/05/13 10:38:43;;;;;;;21.40;12.25;;;;;;;19.51;61.62;101687.28;4997037;28;20044;-76
2022/05/13 10:41:35;;;;;;;33.38;12.80;;;;;;;19.75;59.66;101678.31;4995602;28;20412;-77
2022/05/13 10:44:07;;;;;;;30.23;12.25;;;;;;;18.94;61.54;101695.91;4986075;28;20045;-76
2022/05/13 10:46:45;;;;;;;29.77;11.73;;;;;;;19.06;60.65;101685.44;4996601;28;20026;-76
2022/05/13 10:49:13;;;;;;;21.75;8.60;;;;;;;18.79;60.17;101687.22;4996162;28;20292;-77
2022/05/13 10:52:01;;;;;;;26.02;10.30;;;;;;;18.91;60.51;101687.91;4977669;28;20414;-77
2022/05/13 10:54:43;;;;;;;25.23;13.00;;;;;;;18.20;63.08;101681.06;4993876;28;20134;-76
2022/05/13 10:57:36;;;;;;;28.13;13.10;;;;;;;18.22;65.00;101676.22;4996321;28;20042;-77
2022/05/13 11:00:17;;;;;;;38.15;15.65;;;;;;;18.64;62.89;101683.19;4992523;28;20105;-77
2022/05/13 11:03:24;;;;;;;38.25;17.48;;;;;;;18.94;61.96;101681.13;4998039;28;20106;-76
2022/05/13 11:06:01;;;;;;;34.45;17.40;;;;;;;18.67;63.45;101688.44;4966329;28;20186;-76
2022/05/13 11:08:26;;;;;;;33.63;14.50;;;;;;;18.65;62.86;101691.34;4994931;28;20147;-77
2022/05/13 11:11:13;;;;;;;35.45;14.02;;;;;;;18.93;60.93;101699.69;4994971;28;20061;-76
2022/05/13 11:14:11;;;;;;;30.00;14.27;;;;;;;18.73;61.28;101696.16;4976862;28;20100;-76
2022/05/13 11:17:15;;;;;;;29.33;13.50;;;;;;;18.78;60.80;101692.91;4991228;28;20133;-77
2022/05/13 11:19:56;;;;;;;36.35;16.00;;;;;;;18.24;62.54;101689.94;4991084;28;20047;-77
2022/05/13 11:22:37;;;;;;;32.65;14.65;;;;;;;18.65;61.50;101694.13;4981049;28;20038;-77
2022/05/13 11:28:29;;;;;;;37.50;16.75;;;;;;;18.39;63.37;101688.41;4980423;28;20034;-77
2022/05/13 11:31:04;;;;;;;41.15;18.60;;;;;;;18.28;62.55;101700.59;4991940;28;20077;-77
2022/05/13 11:33:51;;;;;;;47.53;21.30;;;;;;;18.21;63.07;101684.69;4977251;28;20034;-77
2022/05/13 11:36:22;;;;;;;48.50;20.23;;;;;;;18.87;61.48;101701.22;4994763;28;20038;-76
2022/05/13 11:39:32;;;;;;;42.85;19.58;;;;;;;19.56;59.38;101686.78;4992976;28;20494;-75
2022/05/13 11:42:06;;;;;;;27.33;16.42;;;;;;;19.86;56.15;101688.31;4966737;28;20059;-77
2022/05/13 11:45:13;;;;;;;43.47;19.73;;;;;;;18.92;58.10;101698.84;4994764;28;20046;-75
2022/05/13 11:47:56;;;;;;;36.50;19.50;;;;;;;19.12;58.82;101687.59;4995099;28;20038;-76
2022/05/13 11:50:26;;;;;;;;;;;;;;;18.97;59.46;101686.38;4996638;28;20467;-76